Time;durP1;ratioP1;P1;durP2;ratioP2;P2;SDS_P1;SDS_P2;PMS_P1;PMS_P2;Temp;Humidity;BMP_temperature;BMP_pressure;BME280_temperature;BME280_humidity;BME280_pressure;Samples;Min_cycle;Max_cycle;Signal;HPM_P1;HPM_P2
2021/01/23 00:00:42;;;;;;;10.03;5.40;;;3.70;1.00;;;;;;5018551;28;20225;-73
2021/01/23 00:03:08;;;;;;;7.50;4.20;;;3.60;1.00;;;;;;5020488;28;20220;-73
2021/01/23 00:05:35;;;;;;;11.13;5.07;;;3.70;1.00;;;;;;5029054;28;20208;-73
2021/01/23 00:08:02;;;;;;;7.87;4.70;;;3.50;1.00;;;;;;5014259;28;20207;-73
2021/01/23 00:10:31;;;;;;;12.17;5.90;;;3.40;1.00;;;;;;5018045;28;20223;-73
2021/01/23 00:12:57;;;;;;;6.03;4.97;;;3.50;1.00;;;;;;5035002;28;20243;-74
2021/01/23 00:15:24;;;;;;;9.63;5.23;;;3.60;1.00;;;;;;5036708;28;20303;-74
2021/01/23 00:17:50;;;;;;;12.37;5.37;;;3.40;1.00;;;;;;5018391;28;20406;-73
2021/01/23 00:20:17;;;;;;;8.50;5.27;;;3.30;7.80;;;;;;5036936;28;20231;-74
2021/01/23 00:22:43;;;;;;;8.67;4.87;;;3.30;57.80;;;;;;5008583;28;20299;-74
2021/01/23 00:25:10;;;;;;;11.03;5.10;;;3.20;98.70;;;;;;5034729;28;20270;-74
2021/01/23 00:27:38;;;;;;;9.27;5.33;;;3.30;99.90;;;;;;5034407;28;20203;-74
2021/01/23 00:30:05;;;;;;;10.63;4.93;;;3.30;99.90;;;;;;5038392;28;20235;-73
2021/01/23 00:32:32;;;;;;;8.90;4.70;;;3.50;99.90;;;;;;5040100;28;20209;-74
2021/01/23 00:34:59;;;;;;;11.53;5.23;;;3.50;73.20;;;;;;5004385;28;20212;-74
2021/01/23 00:37:26;;;;;;;7.93;5.23;;;3.30;99.90;;;;;;5036059;28;20213;-74
2021/01/23 00:39:52;;;;;;;7.93;4.60;;;3.40;99.90;;;;;;5035427;28;20508;-75
2021/01/23 00:42:18;;;;;;;6.27;5.00;;;3.30;99.90;;;;;;5032142;28;20228;-74
2021/01/23 00:44:44;;;;;;;8.13;4.77;;;3.20;99.90;;;;;;5038503;28;20266;-74
2021/01/23 00:47:11;;;;;;;9.87;5.23;;;3.20;99.90;;;;;;5042013;28;20284;-74
2021/01/23 00:49:37;;;;;;;8.87;4.63;;;3.30;99.90;;;;;;5038489;28;20697;-75
2021/01/23 00:52:04;;;;;;;9.87;5.80;;;3.30;99.90;;;;;;5038032;28;20344;-73
2021/01/23 00:54:30;;;;;;;10.23;4.80;;;3.30;99.90;;;;;;5033189;28;20311;-74
2021/01/23 00:56:56;;;;;;;10.33;5.20;;;3.30;99.90;;;;;;5023169;28;20363;-74
2021/01/23 00:59:22;;;;;;;6.27;4.43;;;3.30;99.90;;;;;;5033216;28;20229;-74
2021/01/23 01:01:49;;;;;;;9.13;4.67;;;3.40;99.90;;;;;;5012179;28;20609;-74
2021/01/23 01:04:15;;;;;;;7.57;5.30;;;3.30;99.90;;;;;;5036825;28;20221;-75
2021/01/23 01:06:41;;;;;;;10.07;4.90;;;3.40;99.90;;;;;;5038913;28;20236;-74
2021/01/23 01:09:08;;;;;;;8.07;5.67;;;3.50;99.90;;;;;;5036784;28;20295;-74
2021/01/23 01:11:34;;;;;;;9.97;5.67;;;3.50;99.90;;;;;;5004969;28;20200;-74
2021/01/23 01:14:01;;;;;;;11.33;5.57;;;3.50;99.90;;;;;;5034314;28;20288;-74
2021/01/23 01:16:27;;;;;;;8.57;4.50;;;3.60;99.90;;;;;;5035718;28;20208;-74
2021/01/23 01:18:53;;;;;;;8.00;5.00;;;3.70;99.90;;;;;;5029377;28;20242;-75
2021/01/23 01:21:20;;;;;;;10.57;5.33;;;3.70;99.90;;;;;;5037876;28;20605;-75
2021/01/23 01:23:46;;;;;;;9.17;5.43;;;3.80;97.30;;;;;;5040270;28;20232;-75
2021/01/23 01:26:12;;;;;;;7.90;5.00;;;3.80;76.50;;;;;;5033423;28;20213;-73
2021/01/23 01:28:39;;;;;;;9.83;4.93;;;3.80;54.80;;;;;;5031549;28;20218;-73
2021/01/23 01:31:06;;;;;;;10.93;5.33;;;3.70;41.20;;;;;;5037467;28;20232;-74
2021/01/23 01:33:32;;;;;;;10.67;5.30;;;3.80;69.20;;;;;;5034207;28;20206;-74
2021/01/23 01:35:58;;;;;;;7.80;5.70;;;3.80;55.10;;;;;;5002897;28;20519;-74
2021/01/23 01:38:25;;;;;;;11.37;5.17;;;3.80;77.00;;;;;;5034286;28;20227;-74
2021/01/23 01:40:51;;;;;;;9.30;5.60;;;3.80;82.80;;;;;;5013564;28;20232;-73
2021/01/23 01:43:18;;;;;;;7.80;5.07;;;3.80;94.30;;;;;;5032018;28;20275;-75
2021/01/23 01:45:45;;;;;;;10.33;5.70;;;3.70;83.60;;;;;;5021199;28;20676;-74
2021/01/23 01:48:12;;;;;;;9.27;6.07;;;3.50;99.90;;;;;;5038967;28;20824;-73
2021/01/23 01:50:39;;;;;;;8.70;5.93;;;3.50;99.90;;;;;;5027754;28;20232;-74
2021/01/23 01:53:06;;;;;;;9.33;5.30;;;3.50;99.90;;;;;;5039377;28;20692;-74
2021/01/23 01:55:34;;;;;;;14.43;6.33;;;3.60;99.90;;;;;;5035531;28;20957;-73
2021/01/23 01:58:03;;;;;;;7.07;5.20;;;3.70;99.90;;;;;;5041262;28;20628;-73
2021/01/23 02:00:30;;;;;;;7.27;5.10;;;3.50;99.90;;;;;;5031785;28;20291;-73
2021/01/23 02:03:31;;;;;;;10.37;6.00;;;3.20;99.90;;;;;;5020179;28;20948;-73
2021/01/23 02:06:21;;;;;;;8.70;5.30;;;3.40;99.90;;;;;;5027811;28;20239;-73
2021/01/23 02:08:54;;;;;;;9.50;6.23;;;3.50;99.90;;;;;;5031099;28;20286;-74
2021/01/23 02:11:20;;;;;;;7.33;6.27;;;3.30;99.90;;;;;;5037835;28;20253;-74
2021/01/23 02:14:14;;;;;;;13.40;5.47;;;3.30;99.90;;;;;;5036881;28;20327;-73
2021/01/23 02:16:47;;;;;;;6.73;5.40;;;3.40;99.90;;;;;;5036914;28;20239;-75
2021/01/23 02:19:51;;;;;;;11.67;6.20;;;3.40;99.90;;;;;;5034310;28;20247;-73
2021/01/23 02:22:43;;;;;;;12.70;6.17;;;3.40;99.90;;;;;;5038219;28;20286;-74
2021/01/23 02:25:12;;;;;;;12.27;6.13;;;3.10;99.90;;;;;;5034184;28;20200;-72
2021/01/23 02:28:06;;;;;;;8.97;5.60;;;3.10;99.90;;;;;;5033929;28;20208;-73
2021/01/23 02:30:59;;;;;;;10.10;5.77;;;3.20;99.90;;;;;;5036044;28;20244;-74
2021/01/23 02:33:29;;;;;;;10.53;4.93;;;3.20;99.90;;;;;;5035060;28;20270;-74
2021/01/23 02:35:55;;;;;;;10.70;5.97;;;3.20;99.90;;;;;;5038310;28;20216;-74
2021/01/23 02:38:22;;;;;;;9.47;6.13;;;3.10;99.90;;;;;;5037167;28;20197;-74
2021/01/23 02:40:49;;;;;;;9.33;5.63;;;3.00;99.90;;;;;;5033770;28;20231;-74
2021/01/23 02:43:20;;;;;;;11.33;6.07;;;3.00;99.90;;;;;;5019431;28;20837;-73
2021/01/23 02:45:50;;;;;;;8.47;5.60;;;3.00;99.90;;;;;;5037265;28;20208;-73
2021/01/23 02:48:18;;;;;;;9.60;5.10;;;3.00;99.90;;;;;;5037856;28;20297;-74
2021/01/23 02:50:45;;;;;;;10.60;6.47;;;2.90;99.90;;;;;;5036320;28;20231;-73
2021/01/23 02:53:20;;;;;;;10.83;5.93;;;2.90;99.90;;;;;;5033567;28;20266;-74
2021/01/23 02:55:51;;;;;;;9.40;5.70;;;3.00;99.90;;;;;;5035991;28;20220;-73
2021/01/23 02:58:21;;;;;;;11.27;5.60;;;3.00;99.90;;;;;;5034423;28;20672;-74
2021/01/23 03:00:50;;;;;;;10.83;5.60;;;3.10;99.90;;;;;;5034001;28;20308;-73
2021/01/23 03:03:18;;;;;;;10.50;6.47;;;3.10;99.90;;;;;;5050473;28;20203;-73
2021/01/23 03:05:45;;;;;;;8.90;5.57;;;3.20;99.90;;;;;;5037419;28;20233;-73
2021/01/23 03:08:12;;;;;;;8.47;5.73;;;3.10;99.90;;;;;;5032385;28;20310;-73
2021/01/23 03:10:39;;;;;;;10.40;5.83;;;3.20;99.90;;;;;;5034375;28;20205;-73
2021/01/23 03:13:06;;;;;;;9.00;5.73;;;3.10;99.90;;;;;;5033044;28;20310;-73
2021/01/23 03:15:33;;;;;;;11.47;6.30;;;3.20;99.90;;;;;;5019610;28;20258;-74
2021/01/23 03:18:00;;;;;;;9.07;6.10;;;3.10;99.90;;;;;;5036829;28;20258;-74
2021/01/23 03:20:27;;;;;;;7.83;5.03;;;3.10;99.90;;;;;;5033703;28;20215;-73
2021/01/23 03:23:00;;;;;;;14.63;6.17;;;3.10;99.90;;;;;;5019695;28;20202;-74
2021/01/23 03:25:28;;;;;;;10.87;6.30;;;3.20;99.90;;;;;;5025493;28;20212;-74
2021/01/23 03:27:55;;;;;;;6.43;5.07;;;3.30;99.90;;;;;;5037082;28;20208;-74
2021/01/23 03:30:22;;;;;;;8.50;5.80;;;3.40;99.90;;;;;;5032781;28;20246;-74
2021/01/23 03:32:49;;;;;;;7.17;5.23;;;3.40;99.90;;;;;;5053240;28;20223;-74
2021/01/23 03:35:17;;;;;;;8.70;6.13;;;3.30;99.90;;;;;;5032338;28;20257;-74
2021/01/23 03:37:43;;;;;;;10.57;5.70;;;3.30;99.90;;;;;;5035861;28;20211;-74
2021/01/23 03:40:10;;;;;;;7.17;4.83;;;3.40;99.90;;;;;;5031745;28;20241;-74
2021/01/23 03:42:37;;;;;;;9.33;5.70;;;3.40;99.90;;;;;;5016411;28;20228;-73
2021/01/23 03:45:06;;;;;;;9.40;5.30;;;3.40;99.90;;;;;;5019804;28;20241;-73
2021/01/23 03:47:32;;;;;;;8.47;5.53;;;3.50;99.90;;;;;;5036005;28;20215;-74
2021/01/23 03:49:59;;;;;;;12.70;5.67;;;3.50;99.90;;;;;;5029946;28;20239;-74
2021/01/23 03:52:26;;;;;;;7.77;4.80;;;3.40;99.90;;;;;;5036730;28;20200;-73
2021/01/23 03:54:52;;;;;;;10.50;5.70;;;3.60;99.90;;;;;;5035064;28;20670;-74
2021/01/23 03:57:19;;;;;;;7.60;4.70;;;3.60;99.90;;;;;;5031278;28;20216;-74
2021/01/23 03:59:45;;;;;;;6.20;4.30;;;3.60;99.90;;;;;;5016401;28;20267;-73
2021/01/23 04:02:11;;;;;;;7.77;4.70;;;3.50;99.90;;;;;;5038484;28;20215;-74
2021/01/23 04:04:39;;;;;;;8.50;4.70;;;3.40;99.90;;;;;;5037474;28;20214;-73
2021/01/23 04:07:06;;;;;;;11.60;5.13;;;3.40;99.90;;;;;;5040738;28;20296;-74
2021/01/23 04:09:32;;;;;;;11.10;4.70;;;3.40;99.90;;;;;;5039046;28;20657;-74
2021/01/23 04:11:58;;;;;;;7.20;4.73;;;3.40;99.90;;;;;;5036363;28;20322;-74
2021/01/23 04:14:25;;;;;;;6.30;4.70;;;3.40;99.90;;;;;;5017650;28;20248;-74
2021/01/23 04:16:51;;;;;;;9.80;4.70;;;3.60;99.90;;;;;;5037421;28;20249;-74
2021/01/23 04:19:18;;;;;;;8.03;5.30;;;3.40;99.90;;;;;;5040339;28;20306;-74
2021/01/23 04:21:44;;;;;;;5.23;4.10;;;3.50;99.90;;;;;;5038324;28;20227;-74
2021/01/23 04:24:11;;;;;;;8.47;4.60;;;3.50;99.90;;;;;;5037954;28;20346;-74
2021/01/23 04:26:41;;;;;;;8.17;4.87;;;3.30;99.90;;;;;;5036907;28;20866;-73
2021/01/23 04:29:08;;;;;;;7.60;4.93;;;3.40;99.90;;;;;;5038280;28;20195;-73
2021/01/23 04:31:36;;;;;;;7.63;4.33;;;3.50;99.90;;;;;;5041371;28;20643;-74
2021/01/23 04:34:02;;;;;;;10.50;5.00;;;3.50;99.90;;;;;;5037397;28;20200;-74
2021/01/23 04:36:29;;;;;;;11.70;5.37;;;3.30;99.90;;;;;;5035297;28;20567;-74
2021/01/23 04:38:55;;;;;;;8.67;5.37;;;3.30;99.90;;;;;;5037416;28;20216;-72
2021/01/23 04:41:21;;;;;;;7.20;4.67;;;3.10;99.90;;;;;;5018706;28;20279;-74
2021/01/23 04:43:48;;;;;;;8.43;4.93;;;3.10;99.90;;;;;;5036466;28;20231;-74
2021/01/23 04:46:17;;;;;;;10.67;5.00;;;3.10;99.90;;;;;;5024433;28;20380;-73
2021/01/23 04:48:44;;;;;;;7.07;4.80;;;3.20;99.90;;;;;;5035016;28;20284;-73
2021/01/23 04:51:11;;;;;;;8.40;4.70;;;3.20;99.90;;;;;;5035702;28;20341;-75
2021/01/23 04:53:39;;;;;;;8.00;5.50;;;3.20;99.90;;;;;;5018680;28;20200;-75
2021/01/23 04:56:06;;;;;;;9.27;4.03;;;3.10;99.90;;;;;;5033018;28;20365;-74
2021/01/23 04:58:36;;;;;;;8.87;5.17;;;3.20;99.90;;;;;;5020343;28;20379;-75
2021/01/23 05:01:02;;;;;;;6.43;3.67;;;3.10;99.90;;;;;;5036120;28;20215;-74
2021/01/23 05:03:29;;;;;;;8.53;4.93;;;3.20;99.90;;;;;;5037730;28;20203;-74
2021/01/23 05:06:07;;;;;;;8.10;4.80;;;3.20;99.90;;;;;;5035032;28;20208;-74
2021/01/23 05:08:36;;;;;;;8.40;5.23;;;3.20;99.90;;;;;;5036033;28;20286;-74
2021/01/23 05:11:04;;;;;;;8.40;5.03;;;3.20;99.90;;;;;;5027433;28;20330;-74
2021/01/23 05:13:30;;;;;;;8.60;4.80;;;3.10;99.90;;;;;;5032930;28;20515;-73
2021/01/23 05:15:57;;;;;;;7.50;4.30;;;3.20;99.90;;;;;;5033382;28;20733;-74
2021/01/23 05:18:24;;;;;;;6.50;4.13;;;3.20;99.90;;;;;;5039360;28;20201;-74
2021/01/23 05:20:53;;;;;;;8.43;4.97;;;3.10;99.90;;;;;;5036826;28;20204;-73
2021/01/23 05:23:28;;;;;;;14.23;5.80;;;3.20;99.90;;;;;;5037021;28;20583;-74
2021/01/23 05:25:56;;;;;;;7.07;4.77;;;3.20;99.90;;;;;;5037250;28;20241;-74
2021/01/23 05:28:28;;;;;;;6.23;4.53;;;3.10;99.90;;;;;;5021833;28;20250;-74
2021/01/23 05:30:55;;;;;;;8.70;4.63;;;3.10;99.90;;;;;;5032470;28;20388;-73
2021/01/23 05:33:30;;;;;;;6.83;4.60;;;3.00;99.90;;;;;;5034278;28;20303;-74
2021/01/23 05:36:00;;;;;;;8.40;4.63;;;3.00;99.90;;;;;;5051865;28;20233;-74
2021/01/23 05:38:32;;;;;;;7.20;4.87;;;3.00;99.90;;;;;;5035325;28;20288;-73
2021/01/23 05:41:04;;;;;;;11.07;5.30;;;3.10;99.90;;;;;;5035134;28;20583;-74
2021/01/23 05:43:33;;;;;;;7.47;4.10;;;3.10;99.90;;;;;;5036662;28;20221;-73
2021/01/23 05:46:09;;;;;;;10.63;4.53;;;3.10;99.90;;;;;;5035008;28;20752;-73
2021/01/23 05:48:39;;;;;;;8.97;5.10;;;3.00;99.90;;;;;;5036864;28;20207;-74
2021/01/23 05:51:05;;;;;;;8.20;4.57;;;3.10;99.90;;;;;;5038593;28;20274;-74
2021/01/23 05:53:32;;;;;;;7.83;5.33;;;3.10;99.90;;;;;;5019591;28;20274;-74
2021/01/23 05:56:01;;;;;;;7.83;4.63;;;3.10;99.90;;;;;;5033360;28;20220;-74
2021/01/23 05:58:30;;;;;;;9.50;5.00;;;3.00;99.90;;;;;;5037072;28;20230;-74
2021/01/23 06:01:02;;;;;;;10.00;4.70;;;3.10;99.90;;;;;;5049738;28;20236;-74
2021/01/23 06:03:34;;;;;;;8.23;4.83;;;3.20;99.90;;;;;;5037167;28;20235;-74
2021/01/23 06:06:00;;;;;;;7.93;4.70;;;3.10;99.90;;;;;;5036575;28;20203;-74
2021/01/23 06:08:40;;;;;;;8.20;5.30;;;3.20;99.90;;;;;;5032501;28;20211;-75
2021/01/23 06:11:32;;;;;;;7.30;4.80;;;3.10;99.90;;;;;;5038593;28;20215;-74
2021/01/23 06:13:58;;;;;;;7.73;4.53;;;3.20;99.90;;;;;;5051521;28;20761;-74
2021/01/23 06:16:34;;;;;;;8.07;4.70;;;3.20;99.90;;;;;;5020952;28;20207;-74
2021/01/23 06:19:07;;;;;;;7.90;5.07;;;3.20;99.90;;;;;;5034626;28;20203;-74
2021/01/23 06:21:43;;;;;;;7.03;4.43;;;3.20;99.90;;;;;;5036074;28;20256;-73
2021/01/23 06:24:09;;;;;;;8.47;4.53;;;3.30;99.90;;;;;;5032760;28;20211;-74
2021/01/23 06:27:08;;;;;;;8.90;4.90;;;3.30;99.90;;;;;;5033211;28;20285;-74
2021/01/23 06:29:38;;;;;;;8.57;5.13;;;3.20;99.90;;;;;;5015025;28;20651;-74
2021/01/23 06:32:13;;;;;;;8.03;5.20;;;3.20;99.90;;;;;;5034508;28;20642;-74
2021/01/23 06:34:50;;;;;;;9.83;4.67;;;3.30;99.90;;;;;;5037629;28;20219;-74
2021/01/23 06:37:22;;;;;;;6.97;4.67;;;3.30;99.90;;;;;;5035660;28;20272;-75
2021/01/23 06:40:05;;;;;;;5.40;3.97;;;3.20;99.90;;;;;;5034771;28;20203;-75
2021/01/23 06:42:53;;;;;;;9.03;4.37;;;3.20;99.90;;;;;;5033088;28;20198;-76
2021/01/23 06:45:25;;;;;;;9.13;4.53;;;3.20;99.90;;;;;;5051909;28;20206;-75
2021/01/23 06:47:56;;;;;;;10.17;4.33;;;3.30;99.90;;;;;;5047875;28;20284;-75
2021/01/23 06:50:39;;;;;;;7.73;5.17;;;3.30;99.90;;;;;;5036252;28;20997;-75
2021/01/23 06:53:23;;;;;;;8.70;4.40;;;3.40;99.90;;;;;;5036320;28;20892;-74
2021/01/23 06:55:58;;;;;;;8.37;4.70;;;3.40;99.90;;;;;;5048242;28;20231;-74
2021/01/23 06:58:29;;;;;;;6.60;4.37;;;3.50;99.90;;;;;;5014117;28;20199;-74
2021/01/23 07:00:56;;;;;;;6.17;4.00;;;3.50;99.90;;;;;;5047510;28;20728;-75
2021/01/23 07:03:25;;;;;;;7.43;4.27;;;3.50;99.90;;;;;;5037308;28;20199;-75
2021/01/23 07:05:54;;;;;;;10.17;5.60;;;3.50;99.90;;;;;;5033520;28;20245;-75
2021/01/23 07:08:22;;;;;;;8.63;5.07;;;3.50;99.90;;;;;;5037255;28;20204;-74
2021/01/23 07:11:08;;;;;;;7.10;4.43;;;3.60;99.90;;;;;;5033395;28;20284;-74
2021/01/23 07:13:35;;;;;;;6.57;3.97;;;3.60;99.90;;;;;;5036992;28;20295;-75
2021/01/23 07:16:03;;;;;;;8.87;4.20;;;3.70;99.90;;;;;;5036377;28;20242;-74
2021/01/23 07:18:29;;;;;;;10.50;4.03;;;3.70;99.90;;;;;;5035219;28;20238;-74
2021/01/23 07:20:56;;;;;;;9.97;4.33;;;3.70;99.90;;;;;;5036311;28;20686;-74
2021/01/23 07:23:23;;;;;;;12.03;4.40;;;3.80;99.90;;;;;;5034860;28;20237;-74
2021/01/23 07:25:50;;;;;;;6.23;3.53;;;3.80;99.90;;;;;;5016896;28;20226;-75
2021/01/23 07:28:18;;;;;;;6.40;3.53;;;3.80;99.90;;;;;;5032503;28;20553;-75
2021/01/23 07:30:45;;;;;;;8.70;4.30;;;3.80;99.90;;;;;;5037622;28;20246;-75
2021/01/23 07:33:11;;;;;;;5.33;3.70;;;3.90;99.90;;;;;;5035566;28;20248;-75
2021/01/23 07:35:39;;;;;;;8.73;4.13;;;3.80;99.90;;;;;;5037174;28;20291;-75
2021/01/23 07:38:08;;;;;;;7.93;3.63;;;3.90;99.90;;;;;;5052379;28;20207;-74
2021/01/23 07:40:39;;;;;;;5.67;3.93;;;3.90;99.90;;;;;;5036476;28;20790;-75
2021/01/23 07:43:06;;;;;;;9.00;4.60;;;3.80;99.90;;;;;;5040231;28;20972;-75
2021/01/23 07:45:33;;;;;;;8.20;4.50;;;3.90;99.90;;;;;;5037885;28;20258;-75
2021/01/23 07:48:02;;;;;;;6.33;4.50;;;3.80;99.90;;;;;;5041913;28;20250;-75
2021/01/23 07:50:48;;;;;;;8.67;4.23;;;3.90;99.90;;;;;;5039679;28;20687;-75
2021/01/23 07:53:22;;;;;;;7.17;4.33;;;3.90;99.90;;;;;;5039351;28;20200;-76
2021/01/23 07:55:51;;;;;;;8.00;5.27;;;3.90;99.90;;;;;;5040587;28;20212;-74
2021/01/23 07:58:18;;;;;;;4.43;3.20;;;3.90;99.90;;;;;;5038992;28;20201;-74
2021/01/23 08:00:46;;;;;;;6.93;4.27;;;3.90;99.90;;;;;;5034518;28;20223;-74
2021/01/23 08:03:12;;;;;;;7.97;4.17;;;3.90;99.90;;;;;;5041880;28;20199;-74
2021/01/23 08:05:54;;;;;;;10.60;4.40;;;3.90;99.90;;;;;;5040806;28;20516;-74
2021/01/23 08:08:29;;;;;;;6.30;3.67;;;3.90;99.90;;;;;;5040893;28;20638;-74
2021/01/23 08:11:00;;;;;;;12.70;4.60;;;4.00;99.90;;;;;;5036486;28;20252;-74
2021/01/23 08:13:29;;;;;;;6.17;4.07;;;4.00;99.90;;;;;;5038350;28;20262;-74
2021/01/23 08:16:13;;;;;;;7.20;4.50;;;4.00;99.90;;;;;;5037643;28;20326;-74
2021/01/23 08:18:42;;;;;;;5.17;3.40;;;4.10;99.90;;;;;;5020925;28;20207;-76
2021/01/23 08:21:15;;;;;;;6.80;3.57;;;4.10;99.90;;;;;;5055291;28;20811;-75
2021/01/23 08:23:41;;;;;;;6.97;3.50;;;4.10;99.90;;;;;;5057880;28;20232;-76
2021/01/23 08:26:08;;;;;;;4.80;3.57;;;4.10;99.90;;;;;;5038503;28;20261;-73
2021/01/23 08:28:46;;;;;;;7.60;4.20;;;4.20;99.90;;;;;;5034125;28;20240;-74
2021/01/23 08:31:18;;;;;;;7.90;4.27;;;4.20;99.90;;;;;;5041714;28;20701;-75
2021/01/23 08:33:52;;;;;;;7.97;3.47;;;4.40;99.90;;;;;;5041256;28;20211;-73
2021/01/23 08:36:19;;;;;;;7.00;4.27;;;4.40;99.90;;;;;;5040340;28;20235;-75
2021/01/23 08:38:53;;;;;;;8.40;4.70;;;4.40;99.90;;;;;;5025338;28;20212;-74
2021/01/23 08:41:19;;;;;;;9.03;4.20;;;4.40;99.90;;;;;;5035110;28;20281;-75
2021/01/23 08:43:45;;;;;;;10.73;3.97;;;4.30;99.90;;;;;;5018496;28;20199;-74
2021/01/23 08:46:12;;;;;;;7.33;4.00;;;4.40;99.90;;;;;;5039042;28;20207;-75
2021/01/23 08:48:39;;;;;;;8.87;3.83;;;4.40;99.90;;;;;;5039305;28;20199;-74
2021/01/23 08:51:05;;;;;;;7.73;4.53;;;4.50;99.90;;;;;;5023204;28;20243;-74
2021/01/23 08:53:32;;;;;;;5.10;3.57;;;4.70;99.90;;;;;;5039320;28;20619;-75
2021/01/23 08:55:58;;;;;;;16.03;4.40;;;4.70;99.90;;;;;;5033966;28;20759;-74
2021/01/23 08:58:25;;;;;;;5.10;4.10;;;4.80;99.90;;;;;;5007462;28;20300;-74
2021/01/23 09:00:52;;;;;;;6.77;4.07;;;4.80;99.90;;;;;;5036302;28;20200;-74
2021/01/23 09:03:19;;;;;;;6.10;3.93;;;4.90;99.90;;;;;;5021093;28;20251;-76
2021/01/23 09:05:46;;;;;;;7.43;4.30;;;5.00;99.90;;;;;;5035630;28;20683;-76
2021/01/23 09:08:12;;;;;;;6.37;3.90;;;5.10;99.90;;;;;;5037085;28;20274;-75
2021/01/23 09:10:39;;;;;;;5.70;3.37;;;5.10;99.90;;;;;;5019446;28;20204;-75
2021/01/23 09:13:06;;;;;;;8.03;3.70;;;5.20;99.90;;;;;;5008223;28;20212;-75
2021/01/23 09:15:33;;;;;;;7.60;3.73;;;5.30;99.90;;;;;;5035724;28;20254;-74
2021/01/23 09:17:59;;;;;;;5.67;3.63;;;5.20;99.90;;;;;;5034399;28;20238;-74
2021/01/23 09:20:26;;;;;;;8.97;3.53;;;5.10;99.90;;;;;;5038231;28;20660;-75
2021/01/23 09:22:52;;;;;;;6.93;4.03;;;5.00;99.90;;;;;;5024665;28;20263;-73
2021/01/23 09:25:19;;;;;;;9.13;4.30;;;5.10;99.90;;;;;;5041489;28;20207;-73
2021/01/23 09:27:46;;;;;;;5.47;4.00;;;5.10;99.90;;;;;;5023825;28;20256;-74
2021/01/23 09:30:14;;;;;;;8.40;3.97;;;5.30;99.90;;;;;;5037735;28;20208;-75
2021/01/23 09:32:42;;;;;;;6.03;4.03;;;5.30;99.90;;;;;;5036285;28;20269;-74
2021/01/23 09:35:10;;;;;;;6.00;3.93;;;5.40;99.90;;;;;;5033692;28;20305;-74
2021/01/23 09:37:38;;;;;;;5.97;4.17;;;5.50;99.90;;;;;;5024401;28;20230;-74
2021/01/23 09:40:06;;;;;;;11.27;4.57;;;5.60;99.90;;;;;;5027206;28;20511;-75
2021/01/23 09:42:33;;;;;;;11.10;3.47;;;6.00;99.90;;;;;;5019466;28;20203;-74
2021/01/23 09:44:59;;;;;;;6.80;3.03;;;6.10;99.90;;;;;;5050971;28;20563;-75
2021/01/23 09:47:25;;;;;;;8.60;3.57;;;6.20;99.90;;;;;;5033657;28;20830;-75
2021/01/23 09:49:52;;;;;;;10.17;4.13;;;6.20;99.90;;;;;;5030558;28;20244;-74
2021/01/23 09:52:18;;;;;;;5.97;3.27;;;6.10;99.90;;;;;;5025201;28;20211;-75
2021/01/23 09:54:45;;;;;;;3.90;3.27;;;6.40;99.90;;;;;;5008715;28;20224;-75
2021/01/23 09:57:11;;;;;;;4.97;3.20;;;6.50;99.90;;;;;;5034838;28;20258;-75
2021/01/23 09:59:38;;;;;;;5.33;3.47;;;6.50;99.90;;;;;;5018174;28;20193;-74
2021/01/23 10:02:05;;;;;;;8.93;3.13;;;6.60;99.90;;;;;;5054773;28;20339;-74
2021/01/23 10:04:31;;;;;;;4.67;2.80;;;6.30;99.90;;;;;;5021155;28;20619;-75
2021/01/23 10:06:57;;;;;;;9.97;4.13;;;6.80;99.90;;;;;;5025114;28;20208;-75
2021/01/23 10:09:24;;;;;;;7.17;2.73;;;6.80;99.90;;;;;;5024105;28;20273;-75
2021/01/23 10:11:50;;;;;;;4.70;3.10;;;6.50;99.90;;;;;;5019451;28;20265;-76
2021/01/23 10:14:17;;;;;;;4.13;3.60;;;6.30;99.90;;;;;;5041028;28;20212;-74
2021/01/23 10:16:44;;;;;;;5.63;3.23;;;6.20;99.90;;;;;;5036300;28;20213;-74
2021/01/23 10:19:10;;;;;;;7.60;3.50;;;6.30;99.90;;;;;;5031170;28;20273;-74
2021/01/23 10:21:38;;;;;;;7.13;4.70;;;6.70;99.90;;;;;;5018434;28;20192;-74
2021/01/23 10:24:04;;;;;;;4.70;2.67;;;6.60;99.90;;;;;;5035559;28;20290;-75
2021/01/23 10:26:32;;;;;;;3.47;3.13;;;6.60;99.90;;;;;;5018788;28;20228;-75
2021/01/23 10:28:59;;;;;;;6.70;2.83;;;6.60;99.90;;;;;;5037332;28;20208;-74
2021/01/23 10:31:26;;;;;;;8.90;2.47;;;6.50;99.90;;;;;;5038082;28;20849;-75
2021/01/23 10:33:52;;;;;;;6.50;3.50;;;6.60;99.90;;;;;;5032236;28;21203;-75
2021/01/23 10:36:19;;;;;;;5.60;2.73;;;6.90;99.90;;;;;;5031129;28;21373;-75
2021/01/23 10:38:47;;;;;;;7.87;3.53;;;6.90;99.90;;;;;;5021289;28;20255;-76
2021/01/23 10:41:13;;;;;;;4.97;2.63;;;6.80;99.90;;;;;;5033709;28;20340;-75
2021/01/23 10:43:40;;;;;;;7.00;3.00;;;6.60;99.90;;;;;;5039383;28;20585;-75
2021/01/23 10:46:06;;;;;;;6.73;2.80;;;6.60;99.90;;;;;;5022011;28;20282;-75
2021/01/23 10:48:33;;;;;;;6.27;2.73;;;6.70;99.90;;;;;;5023043;28;20249;-75
2021/01/23 10:50:59;;;;;;;4.60;2.73;;;6.90;99.90;;;;;;5021572;28;20269;-75
2021/01/23 10:53:26;;;;;;;4.80;3.00;;;6.90;99.90;;;;;;5012409;28;20231;-74
2021/01/23 10:55:52;;;;;;;6.77;2.80;;;7.10;99.90;;;;;;5035334;28;20327;-75
2021/01/23 10:58:18;;;;;;;3.70;2.60;;;6.80;99.90;;;;;;5036290;28;20291;-75
2021/01/23 11:00:44;;;;;;;4.37;3.00;;;6.60;99.90;;;;;;5032758;28;20270;-75
2021/01/23 11:03:11;;;;;;;3.80;2.30;;;6.70;99.90;;;;;;5020309;28;20278;-75
2021/01/23 11:05:38;;;;;;;3.43;2.30;;;6.60;99.90;;;;;;5033726;28;20513;-75
2021/01/23 11:08:05;;;;;;;9.40;3.17;;;6.50;99.90;;;;;;5033657;28;20196;-74
2021/01/23 11:10:31;;;;;;;5.17;2.60;;;6.50;99.90;;;;;;5035817;28;20264;-75
2021/01/23 11:12:58;;;;;;;5.17;2.40;;;6.30;99.90;;;;;;5039678;28;20208;-74
2021/01/23 11:15:27;;;;;;;4.87;2.63;;;6.20;99.90;;;;;;5038381;28;20219;-74
2021/01/23 11:17:53;;;;;;;5.03;3.07;;;6.10;99.90;;;;;;5021960;28;20352;-74
2021/01/23 11:20:20;;;;;;;3.57;2.70;;;6.00;99.90;;;;;;5022559;28;20199;-75
2021/01/23 11:22:46;;;;;;;3.80;2.77;;;6.00;99.90;;;;;;5029843;28;20208;-75
2021/01/23 11:25:14;;;;;;;5.50;3.30;;;6.20;99.90;;;;;;5041703;28;20604;-75
2021/01/23 11:27:42;;;;;;;5.40;3.00;;;6.00;99.90;;;;;;5033564;28;20204;-75
2021/01/23 11:30:10;;;;;;;4.83;2.97;;;5.90;99.90;;;;;;5034583;28;20200;-76
2021/01/23 11:32:37;;;;;;;7.00;3.33;;;5.90;99.90;;;;;;5042436;28;20527;-76
2021/01/23 11:35:06;;;;;;;4.93;2.47;;;5.90;99.90;;;;;;5023347;28;20691;-75
2021/01/23 11:37:34;;;;;;;5.77;3.10;;;5.60;99.90;;;;;;5038995;28;20539;-76
2021/01/23 11:40:00;;;;;;;9.60;3.50;;;5.60;99.90;;;;;;5040386;28;20200;-75
2021/01/23 11:42:27;;;;;;;8.80;3.17;;;5.60;99.90;;;;;;5028083;28;20204;-75
2021/01/23 11:44:53;;;;;;;4.07;2.90;;;5.70;99.90;;;;;;5042470;28;20285;-75
2021/01/23 11:47:20;;;;;;;7.33;2.77;;;5.70;99.90;;;;;;5024694;28;20214;-75
2021/01/23 11:49:47;;;;;;;6.43;3.50;;;5.60;99.90;;;;;;5023415;28;20238;-75
2021/01/23 11:52:13;;;;;;;6.90;3.57;;;5.80;99.90;;;;;;5053931;28;20196;-75
2021/01/23 11:54:40;;;;;;;9.77;3.23;;;5.80;99.90;;;;;;5021542;28;20260;-75
2021/01/23 11:57:08;;;;;;;5.63;2.60;;;5.60;99.90;;;;;;5039216;28;20207;-75
2021/01/23 11:59:35;;;;;;;7.53;4.20;;;5.60;99.90;;;;;;5024065;28;20250;-76
2021/01/23 12:02:02;;;;;;;8.03;3.03;;;5.60;99.90;;;;;;5039906;28;20263;-76
2021/01/23 12:04:29;;;;;;;4.33;3.03;;;5.60;99.90;;;;;;5022857;28;20283;-75
2021/01/23 12:06:58;;;;;;;6.13;2.57;;;5.80;99.90;;;;;;5011611;28;20217;-76
2021/01/23 12:09:26;;;;;;;5.87;2.90;;;5.60;99.90;;;;;;5038141;28;20270;-76
2021/01/23 12:11:53;;;;;;;6.47;3.83;;;5.80;99.90;;;;;;5040044;28;20658;-76
2021/01/23 12:14:19;;;;;;;6.23;3.47;;;5.80;99.90;;;;;;5035869;28;20208;-76
2021/01/23 12:16:47;;;;;;;6.27;3.70;;;5.70;99.90;;;;;;5026947;28;20217;-76
2021/01/23 12:19:14;;;;;;;6.13;3.50;;;5.90;99.90;;;;;;5040766;28;20235;-76
2021/01/23 12:21:41;;;;;;;7.87;4.00;;;5.70;99.90;;;;;;5011530;28;20515;-75
2021/01/23 12:24:08;;;;;;;5.73;3.17;;;5.60;99.90;;;;;;5027313;28;21986;-75
2021/01/23 12:26:36;;;;;;;5.37;3.60;;;5.50;99.90;;;;;;5014586;28;20207;-75
2021/01/23 12:29:03;;;;;;;4.93;3.40;;;5.40;99.90;;;;;;5037075;28;20219;-75
2021/01/23 12:31:30;;;;;;;3.93;3.07;;;5.50;99.90;;;;;;5039089;28;20572;-75
2021/01/23 12:33:57;;;;;;;8.83;3.67;;;5.50;99.90;;;;;;5038117;28;20211;-76
2021/01/23 12:36:24;;;;;;;7.93;3.70;;;5.50;99.90;;;;;;5021371;28;20228;-76
2021/01/23 12:38:50;;;;;;;6.93;3.27;;;5.50;99.90;;;;;;5039197;28;20253;-76
2021/01/23 12:41:16;;;;;;;8.67;3.53;;;5.60;99.90;;;;;;5033589;28;20209;-76
2021/01/23 12:43:43;;;;;;;5.43;3.40;;;5.70;99.90;;;;;;5023963;28;20278;-76
2021/01/23 12:46:09;;;;;;;4.40;3.37;;;5.90;99.90;;;;;;5029380;28;20206;-75
2021/01/23 12:48:35;;;;;;;4.00;3.40;;;6.10;99.90;;;;;;5027236;28;20254;-75
2021/01/23 12:51:04;;;;;;;4.33;3.33;;;6.00;99.90;;;;;;5026126;28;20257;-77
2021/01/23 12:53:31;;;;;;;5.03;3.63;;;6.00;99.90;;;;;;5020614;28;20241;-76
2021/01/23 12:55:57;;;;;;;4.37;3.17;;;5.90;99.90;;;;;;5035801;28;20639;-76
2021/01/23 12:58:23;;;;;;;4.27;3.00;;;5.90;99.90;;;;;;5024757;28;20702;-77
2021/01/23 13:00:50;;;;;;;4.40;2.90;;;5.90;99.90;;;;;;5007004;28;20235;-76
2021/01/23 13:03:16;;;;;;;6.17;3.00;;;6.10;99.90;;;;;;5007793;28;20323;-74